createdAt,value
2019-03-15T00:01:44.955Z,73.99
2019-03-15T00:04:13.626Z,73.60
2019-03-15T00:06:42.294Z,73.92
2019-03-15T00:09:10.980Z,73.71
2019-03-15T00:11:39.637Z,74.00
2019-03-15T00:14:08.325Z,74.07
2019-03-15T00:16:36.997Z,74.23
2019-03-15T00:19:05.676Z,74.79
2019-03-15T00:21:34.354Z,74.11
2019-03-15T00:24:03.029Z,74.04
2019-03-15T00:26:31.897Z,74.53
2019-03-15T00:29:00.584Z,75.49
2019-03-15T00:31:29.261Z,75.65
2019-03-15T00:33:57.989Z,75.27
2019-03-15T00:36:26.660Z,75.90
2019-03-15T00:38:55.376Z,76.08
2019-03-15T00:41:24.050Z,76.21
2019-03-15T00:43:52.709Z,76.36
2019-03-15T00:46:21.675Z,75.99
2019-03-15T00:48:50.347Z,74.98
2019-03-15T00:51:19.083Z,75.10
2019-03-15T00:53:47.765Z,74.74
2019-03-15T00:56:16.437Z,75.59
2019-03-15T00:58:45.114Z,76.02
2019-03-15T01:01:13.782Z,76.25
2019-03-15T01:03:42.452Z,75.12
2019-03-15T01:06:11.125Z,74.81
2019-03-15T01:08:39.805Z,75.54
2019-03-15T01:11:08.488Z,75.72
2019-03-15T01:13:37.251Z,75.95
2019-03-15T01:16:05.927Z,75.29
2019-03-15T01:18:34.578Z,74.92
2019-03-15T01:21:03.239Z,75.94
2019-03-15T01:23:31.906Z,76.20
2019-03-15T01:26:00.584Z,75.90
2019-03-15T01:28:29.251Z,75.79
2019-03-15T01:30:57.942Z,75.48
2019-03-15T01:33:26.580Z,74.98
2019-03-15T01:35:55.259Z,74.92
2019-03-15T01:38:23.932Z,74.99
2019-03-15T01:40:52.612Z,74.47
2019-03-15T01:43:21.280Z,74.75
2019-03-15T01:45:49.942Z,74.83
2019-03-15T01:48:18.632Z,74.93
2019-03-15T01:50:47.296Z,74.75
2019-03-15T01:53:15.962Z,73.55
2019-03-15T01:55:44.640Z,73.11
2019-03-15T01:58:13.328Z,73.67
2019-03-15T02:00:42.095Z,72.28
2019-03-15T02:03:10.776Z,71.92
2019-03-15T02:05:39.445Z,71.61
2019-03-15T02:08:08.124Z,72.55
2019-03-15T02:10:37.443Z,72.92
2019-03-15T02:13:06.464Z,72.70
2019-03-15T02:15:35.142Z,73.27
2019-03-15T02:18:03.825Z,73.47
2019-03-15T02:20:32.501Z,74.24
2019-03-15T02:23:01.205Z,73.46
2019-03-15T02:25:29.886Z,73.58
2019-03-15T02:27:58.567Z,73.78
2019-03-15T02:30:27.229Z,74.21
2019-03-15T02:32:55.920Z,74.35
2019-03-15T02:35:24.597Z,75.18
2019-03-15T02:37:53.262Z,75.03
2019-03-15T02:40:21.938Z,73.93
2019-03-15T02:42:50.739Z,74.54
2019-03-15T02:45:19.464Z,73.67
2019-03-15T02:47:48.171Z,73.64
2019-03-15T02:50:16.855Z,74.01
2019-03-15T02:52:45.562Z,75.10
2019-03-15T02:55:14.228Z,76.12
2019-03-15T02:57:42.896Z,76.47
2019-03-15T03:00:11.571Z,76.37
2019-03-15T03:02:40.250Z,76.10
2019-03-15T03:05:10.696Z,76.11
2019-03-15T03:07:39.788Z,75.89
2019-03-15T03:10:09.252Z,76.83
2019-03-15T03:12:38.143Z,77.20
2019-03-15T03:15:07.813Z,77.89
2019-03-15T03:17:36.476Z,78.08
2019-03-15T03:20:06.644Z,78.43
2019-03-15T03:22:36.353Z,78.99
2019-03-15T03:25:06.607Z,79.45
2019-03-15T03:27:35.294Z,80.03
2019-03-15T03:30:04.664Z,80.16
2019-03-15T03:32:33.365Z,80.29
2019-03-15T03:35:02.183Z,80.57
2019-03-15T03:37:30.933Z,80.95
2019-03-15T03:40:01.526Z,81.12
2019-03-15T03:42:30.008Z,81.36
2019-03-15T03:44:58.718Z,81.31
2019-03-15T03:47:27.384Z,81.51
2019-03-15T03:49:56.069Z,81.59
2019-03-15T03:52:24.743Z,81.53
2019-03-15T03:54:53.425Z,81.57
2019-03-15T03:57:22.093Z,81.65
2019-03-15T03:59:50.776Z,81.65
2019-03-15T04:02:19.553Z,81.27
2019-03-15T04:04:48.629Z,80.96
2019-03-15T04:07:17.524Z,80.99
2019-03-15T04:09:46.234Z,80.92
2019-03-15T04:12:14.907Z,81.36
2019-03-15T04:14:43.813Z,81.27
2019-03-15T04:17:12.665Z,81.16
2019-03-15T04:19:41.326Z,81.05
2019-03-15T04:22:10.024Z,80.36
2019-03-15T04:24:38.888Z,80.33
2019-03-15T04:27:07.555Z,80.68
2019-03-15T04:29:36.228Z,80.90
2019-03-15T04:32:04.895Z,81.47
2019-03-15T04:34:33.576Z,81.47
2019-03-15T04:37:02.309Z,81.42
2019-03-15T04:39:30.976Z,81.59
2019-03-15T04:41:59.769Z,81.57
2019-03-15T04:44:28.447Z,81.50
2019-03-15T04:46:57.302Z,81.36
2019-03-15T04:49:25.976Z,81.36
2019-03-15T04:51:54.647Z,81.63
2019-03-15T04:54:23.344Z,81.58
2019-03-15T04:56:52.023Z,80.43
2019-03-15T04:59:23.878Z,80.89
2019-03-15T05:01:51.094Z,80.98
2019-03-15T05:04:19.790Z,81.30
2019-03-15T05:06:48.468Z,81.20
2019-03-15T05:09:17.208Z,80.16
2019-03-15T05:11:45.873Z,79.22
2019-03-15T05:14:14.535Z,77.25
2019-03-15T05:16:43.210Z,75.84
2019-03-15T05:19:11.933Z,75.09
2019-03-15T05:21:40.907Z,74.19
2019-03-15T05:24:09.640Z,73.68
2019-03-15T05:26:38.322Z,73.65
2019-03-15T05:29:06.997Z,73.32
2019-03-15T05:31:35.670Z,71.97
2019-03-15T05:34:04.403Z,71.23
2019-03-15T05:36:33.071Z,71.84
2019-03-15T05:39:01.743Z,70.32
2019-03-15T05:41:30.418Z,68.47
2019-03-15T05:43:59.103Z,67.91
2019-03-15T05:46:27.773Z,66.80
2019-03-15T05:48:56.445Z,64.55
2019-03-15T05:51:25.269Z,62.98
2019-03-15T05:53:53.965Z,61.08
2019-03-15T05:56:22.633Z,62.12
2019-03-15T05:58:51.322Z,61.97
2019-03-15T06:01:20.272Z,63.38
2019-03-15T06:03:49.459Z,64.46
2019-03-15T06:06:18.398Z,62.77
2019-03-15T06:08:47.067Z,62.57
2019-03-15T06:11:15.834Z,61.55
2019-03-15T06:13:44.503Z,59.58
2019-03-15T06:16:13.176Z,59.34
2019-03-15T06:18:41.862Z,57.42
2019-03-15T06:21:10.531Z,57.42
2019-03-15T06:23:39.227Z,57.54
2019-03-15T06:26:07.877Z,56.40
2019-03-15T06:28:36.547Z,55.05
2019-03-15T06:31:05.217Z,55.03
2019-03-15T06:33:33.994Z,53.92
2019-03-15T06:36:02.710Z,53.51
2019-03-15T06:38:33.504Z,52.59
2019-03-15T06:41:01.801Z,54.38
2019-03-15T06:43:30.819Z,54.62
2019-03-15T06:45:59.918Z,51.06
2019-03-15T06:48:28.598Z,50.51
2019-03-15T06:50:57.308Z,51.46
2019-03-15T06:53:26.923Z,52.23
2019-03-15T06:55:55.648Z,52.32
2019-03-15T06:58:24.362Z,51.90
2019-03-15T07:00:54.717Z,50.33
2019-03-15T07:03:23.406Z,50.39
2019-03-15T07:05:52.088Z,47.51
2019-03-15T07:08:20.914Z,47.03
2019-03-15T07:10:49.792Z,47.33
2019-03-15T07:13:18.653Z,47.51
2019-03-15T07:15:47.738Z,45.28
2019-03-15T07:18:18.703Z,45.40
2019-03-15T07:20:48.015Z,44.67
2019-03-15T07:23:16.700Z,43.71
2019-03-15T07:25:45.463Z,40.53
2019-03-15T07:28:14.412Z,39.44
2019-03-15T07:30:43.059Z,38.87
2019-03-15T07:33:11.778Z,37.79
2019-03-15T07:35:40.497Z,36.29
2019-03-15T07:38:09.355Z,38.12
2019-03-15T07:40:38.001Z,38.90
2019-03-15T07:43:06.692Z,38.65
2019-03-15T07:45:35.383Z,40.02
2019-03-15T07:48:04.397Z,40.42
2019-03-15T07:50:33.081Z,38.40
2019-03-15T07:53:01.981Z,37.88
2019-03-15T07:55:30.745Z,38.53
2019-03-15T07:57:59.644Z,36.56
2019-03-15T08:00:28.382Z,34.84
2019-03-15T08:02:57.063Z,33.54
2019-03-15T08:05:25.877Z,33.10
2019-03-15T08:07:54.546Z,33.46
2019-03-15T08:10:23.226Z,33.47
2019-03-15T08:12:52.153Z,33.19
2019-03-15T08:15:20.807Z,33.73
2019-03-15T08:17:49.507Z,34.60
2019-03-15T08:20:18.206Z,33.98
2019-03-15T08:22:46.870Z,34.02
2019-03-15T08:25:15.837Z,33.20
2019-03-15T08:27:44.536Z,31.81
2019-03-15T08:30:15.480Z,32.34
2019-03-15T08:32:44.379Z,32.58
2019-03-15T08:35:13.766Z,31.25
2019-03-15T08:37:42.781Z,29.54
2019-03-15T08:40:13.678Z,28.09
2019-03-15T08:42:42.491Z,26.73
2019-03-15T08:45:18.886Z,25.46
2019-03-15T08:47:47.767Z,24.67
2019-03-15T08:50:17.984Z,24.06
2019-03-15T08:52:46.690Z,24.62
2019-03-15T08:55:15.827Z,27.05
2019-03-15T08:57:44.567Z,28.12
2019-03-15T09:00:14.763Z,27.69
2019-03-15T09:02:43.582Z,29.54
2019-03-15T09:05:13.741Z,28.53
2019-03-15T09:07:42.534Z,26.41
2019-03-15T09:10:23.831Z,24.93
2019-03-15T09:12:49.623Z,24.05
2019-03-15T09:15:18.340Z,23.55
2019-03-15T09:17:47.187Z,25.47
2019-03-15T09:20:16.487Z,23.53
2019-03-15T09:22:45.562Z,22.48
2019-03-15T09:25:20.142Z,23.77
2019-03-15T09:27:49.344Z,23.37
2019-03-15T09:30:23.812Z,23.26
2019-03-15T09:32:49.174Z,23.63
2019-03-15T09:35:18.063Z,23.33
2019-03-15T09:37:47.859Z,21.19
2019-03-15T09:40:17.047Z,19.74
2019-03-15T09:42:47.536Z,20.43
2019-03-15T09:45:18.378Z,21.55
2019-03-15T09:47:47.472Z,21.54
2019-03-15T09:50:26.554Z,20.85
2019-03-15T09:52:47.704Z,20.75
2019-03-15T09:55:17.019Z,20.43
2019-03-15T09:57:45.712Z,21.01
2019-03-15T10:00:21.092Z,22.20
2019-03-15T10:02:49.981Z,19.45
2019-03-15T10:05:18.668Z,20.18
2019-03-15T10:07:47.389Z,20.48
2019-03-15T10:10:20.065Z,18.77
2019-03-15T10:12:48.788Z,20.95
2019-03-15T10:15:18.153Z,20.31
2019-03-15T10:17:46.840Z,20.54
2019-03-15T10:20:16.276Z,20.54
2019-03-15T10:22:45.135Z,19.64
2019-03-15T10:25:17.397Z,16.71
2019-03-15T10:27:46.228Z,17.05
2019-03-15T10:30:17.539Z,16.84
2019-03-15T10:32:46.731Z,16.28
2019-03-15T10:35:15.717Z,17.04
2019-03-15T10:37:44.395Z,20.38
2019-03-15T10:40:18.623Z,20.47
2019-03-15T10:42:47.284Z,18.71
2019-03-15T10:45:16.191Z,17.84
2019-03-15T10:47:44.864Z,17.00
2019-03-15T10:50:15.337Z,16.15
2019-03-15T10:52:44.027Z,16.83
2019-03-15T10:55:13.253Z,18.13
2019-03-15T10:57:42.226Z,17.94
2019-03-15T11:00:23.184Z,17.99
2019-03-15T11:02:52.006Z,17.54
2019-03-15T11:05:20.911Z,16.27
2019-03-15T11:07:49.952Z,15.88
2019-03-15T11:10:20.094Z,16.77
2019-03-15T11:12:48.769Z,17.40
2019-03-15T11:15:17.469Z,16.81
2019-03-15T11:17:46.207Z,16.86
2019-03-15T11:20:14.868Z,17.19
2019-03-15T11:22:43.560Z,14.97
2019-03-15T11:25:15.179Z,14.36
2019-03-15T11:27:43.851Z,14.88
2019-03-15T11:30:14.774Z,13.91
2019-03-15T11:32:43.448Z,14.85
2019-03-15T11:35:12.587Z,14.06
2019-03-15T11:37:41.337Z,14.27
2019-03-15T11:40:15.174Z,14.05
2019-03-15T11:42:44.436Z,12.47
2019-03-15T11:45:14.206Z,12.78
2019-03-15T11:48:01.925Z,12.08
2019-03-15T11:50:16.453Z,11.78
2019-03-15T11:52:45.111Z,12.69
2019-03-15T11:55:13.828Z,13.18
2019-03-15T11:57:42.644Z,14.37
2019-03-15T12:00:14.358Z,13.87
2019-03-15T12:02:43.076Z,14.83
2019-03-15T12:05:12.364Z,15.56
2019-03-15T12:07:40.979Z,15.16
2019-03-15T12:10:12.375Z,15.45
2019-03-15T12:12:41.102Z,15.98
2019-03-15T12:15:14.593Z,15.32
2019-03-15T12:17:43.326Z,15.52
2019-03-15T12:20:12.889Z,16.54
2019-03-15T12:22:41.625Z,15.37
2019-03-15T12:25:11.002Z,14.85
2019-03-15T12:27:39.789Z,16.45
2019-03-15T12:30:16.370Z,19.61
2019-03-15T12:32:45.042Z,21.24
2019-03-15T12:35:14.958Z,19.63
2019-03-15T12:37:43.786Z,18.13
2019-03-15T12:40:14.539Z,15.35
2019-03-15T12:42:43.425Z,13.99
2019-03-15T12:45:13.094Z,14.07
2019-03-15T12:47:41.780Z,14.25
2019-03-15T12:50:11.655Z,13.16
2019-03-15T12:52:47.765Z,14.11
2019-03-15T12:55:12.187Z,13.71
2019-03-15T12:57:40.943Z,13.52
2019-03-15T13:00:18.464Z,14.04
2019-03-15T13:02:47.286Z,13.31
2019-03-15T13:05:15.973Z,13.67
2019-03-15T13:07:44.745Z,13.90
2019-03-15T13:10:17.837Z,14.38
2019-03-15T13:12:47.461Z,14.40
2019-03-15T13:15:19.846Z,15.03
2019-03-15T13:17:48.520Z,15.35
2019-03-15T13:20:18.039Z,15.12
2019-03-15T13:22:46.811Z,14.71
2019-03-15T13:25:15.484Z,15.72
2019-03-15T13:27:44.199Z,14.84
2019-03-15T13:30:14.140Z,15.63
2019-03-15T13:32:43.039Z,15.33
2019-03-15T13:35:12.475Z,15.98
2019-03-15T13:37:43.160Z,15.88
2019-03-15T13:40:16.412Z,16.17
2019-03-15T13:42:45.091Z,16.05
2019-03-15T13:45:14.874Z,15.98
2019-03-15T13:47:50.913Z,17.44
2019-03-15T13:50:21.106Z,17.58
2019-03-15T13:52:49.795Z,17.67
2019-03-15T13:55:22.085Z,18.85
2019-03-15T13:57:51.093Z,19.48
2019-03-15T14:00:20.677Z,19.48
2019-03-15T14:02:49.534Z,22.52
2019-03-15T14:05:18.232Z,23.12
2019-03-15T14:07:46.951Z,23.72
2019-03-15T14:10:17.822Z,23.72
2019-03-15T14:12:46.468Z,22.51
2019-03-15T14:15:20.208Z,22.46
2019-03-15T14:17:48.870Z,23.86
2019-03-15T14:20:17.586Z,26.26
2019-03-15T14:22:46.274Z,27.73
2019-03-15T14:25:17.553Z,27.58
2019-03-15T14:27:46.547Z,27.19
2019-03-15T14:30:15.963Z,26.73
2019-03-15T14:32:44.977Z,27.72
2019-03-15T14:35:13.841Z,27.81
2019-03-15T14:37:42.880Z,29.07
2019-03-15T14:40:12.341Z,28.55
2019-03-15T14:42:41.227Z,28.64
2019-03-15T14:45:16.455Z,29.28
2019-03-15T14:47:45.728Z,29.19
2019-03-15T14:50:15.401Z,29.05
2019-03-15T14:52:44.092Z,29.14
2019-03-15T14:55:17.239Z,29.11
2019-03-15T14:57:52.690Z,29.57
2019-03-15T15:00:21.363Z,29.94
2019-03-15T15:02:50.251Z,31.48
2019-03-15T15:05:18.921Z,30.52
2019-03-15T15:07:47.645Z,30.58
2019-03-15T15:10:19.629Z,30.79
2019-03-15T15:12:48.313Z,31.33
2019-03-15T15:15:21.436Z,32.41
2019-03-15T15:17:50.255Z,32.66
2019-03-15T15:20:19.122Z,32.88
2019-03-15T15:22:48.024Z,32.98
2019-03-15T15:25:17.580Z,33.37
2019-03-15T15:27:46.253Z,34.10
2019-03-15T15:30:15.895Z,33.47
2019-03-15T15:32:44.844Z,33.39
2019-03-15T15:35:14.436Z,33.78
2019-03-15T15:37:43.435Z,33.71
2019-03-15T15:40:18.653Z,34.24
2019-03-15T15:42:47.553Z,34.36
2019-03-15T15:45:16.310Z,34.00
2019-03-15T15:47:45.014Z,33.64
2019-03-15T15:50:15.777Z,33.68
2019-03-15T15:52:44.860Z,33.84
2019-03-15T15:55:15.571Z,33.93
2019-03-15T15:57:44.607Z,34.43
2019-03-15T16:00:14.670Z,35.40
2019-03-15T16:02:43.365Z,35.33
2019-03-15T16:05:12.474Z,36.11
2019-03-15T16:07:41.172Z,36.12
2019-03-15T16:10:12.813Z,36.13
2019-03-15T16:12:41.697Z,36.65
2019-03-15T16:15:18.130Z,36.72
2019-03-15T16:17:46.796Z,36.85
2019-03-15T16:20:15.597Z,37.24
2019-03-15T16:22:44.300Z,37.73
2019-03-15T16:25:13.606Z,37.73
2019-03-15T16:27:42.279Z,38.49
2019-03-15T16:30:15.796Z,38.38
2019-03-15T16:32:44.725Z,38.97
2019-03-15T16:35:14.709Z,39.62
2019-03-15T16:37:43.478Z,39.35
2019-03-15T16:40:13.957Z,39.78
2019-03-15T16:42:42.631Z,40.14
2019-03-15T16:45:29.282Z,40.71
2019-03-15T16:47:57.922Z,40.65
2019-03-15T16:50:26.592Z,41.46
2019-03-15T16:52:55.390Z,42.23
2019-03-15T16:55:24.052Z,42.15
2019-03-15T16:57:52.950Z,42.42
2019-03-15T17:00:21.627Z,42.03
2019-03-15T17:02:50.290Z,42.90
2019-03-15T17:05:18.983Z,42.93
2019-03-15T17:07:47.688Z,43.08
2019-03-15T17:10:17.892Z,43.75
2019-03-15T17:12:46.553Z,43.46
2019-03-15T17:15:25.690Z,43.55
2019-03-15T17:17:54.507Z,43.41
2019-03-15T17:20:23.208Z,43.56
2019-03-15T17:22:51.981Z,43.80
2019-03-15T17:25:20.653Z,44.83
2019-03-15T17:27:49.399Z,45.08
2019-03-15T17:30:18.592Z,45.22
2019-03-15T17:32:47.302Z,45.98
2019-03-15T17:35:20.719Z,46.78
2019-03-15T17:37:49.446Z,47.62
2019-03-15T17:40:21.924Z,48.57
2019-03-15T17:42:50.781Z,49.06
2019-03-15T17:45:19.505Z,48.76
2019-03-15T17:47:48.225Z,49.31
2019-03-15T17:50:25.073Z,49.43
2019-03-15T17:52:53.731Z,48.60
2019-03-15T17:55:22.617Z,45.80
2019-03-15T17:57:51.465Z,45.55
2019-03-15T18:00:27.264Z,44.53
2019-03-15T18:02:56.057Z,44.15
2019-03-15T18:05:24.823Z,43.95
2019-03-15T18:07:53.486Z,44.58
2019-03-15T18:10:22.478Z,43.81
2019-03-15T18:12:51.128Z,44.42
2019-03-15T18:15:19.798Z,44.77
2019-03-15T18:17:48.453Z,46.08
2019-03-15T18:20:17.125Z,45.74
2019-03-15T18:22:45.791Z,45.80
2019-03-15T18:25:15.134Z,46.18
2019-03-15T18:27:43.790Z,45.62
2019-03-15T18:30:16.978Z,45.81
2019-03-15T18:32:46.087Z,46.61
2019-03-15T18:35:15.151Z,47.51
2019-03-15T18:37:43.809Z,47.30
2019-03-15T18:40:21.800Z,47.27
2019-03-15T18:42:50.458Z,47.15
2019-03-15T18:45:19.554Z,47.48
2019-03-15T18:47:48.216Z,47.75
2019-03-15T18:50:19.505Z,47.87
2019-03-15T18:52:48.301Z,48.02
2019-03-15T18:55:17.180Z,48.76
2019-03-15T18:57:46.306Z,48.97
2019-03-15T19:00:17.074Z,49.26
2019-03-15T19:02:45.745Z,48.85
2019-03-15T19:05:14.666Z,49.30
2019-03-15T19:07:43.470Z,49.25
2019-03-15T19:10:15.704Z,49.46
2019-03-15T19:12:44.580Z,49.56
2019-03-15T19:15:15.194Z,49.81
2019-03-15T19:17:44.057Z,50.26
2019-03-15T19:20:17.162Z,50.10
2019-03-15T19:22:46.161Z,50.33
2019-03-15T19:25:15.790Z,49.67
2019-03-15T19:27:44.567Z,49.98
2019-03-15T19:30:18.136Z,50.16
2019-03-15T19:32:46.802Z,49.68
2019-03-15T19:35:15.449Z,49.84
2019-03-15T19:37:44.111Z,49.55
2019-03-15T19:40:17.811Z,49.31
2019-03-15T19:42:46.621Z,49.46
2019-03-15T19:45:16.066Z,49.79
2019-03-15T19:47:44.727Z,49.77
2019-03-15T19:50:15.262Z,50.58
2019-03-15T19:52:43.920Z,50.00
2019-03-15T19:55:13.894Z,49.51
2019-03-15T19:57:42.552Z,49.50
2019-03-15T20:00:22.377Z,49.45
2019-03-15T20:02:51.095Z,49.15
2019-03-15T20:05:19.746Z,49.63
2019-03-15T20:07:48.565Z,49.91
2019-03-15T20:10:17.602Z,49.58
2019-03-15T20:12:46.383Z,50.09
2019-03-15T20:15:16.731Z,49.99
2019-03-15T20:17:45.797Z,49.91
2019-03-15T20:20:17.384Z,50.51
2019-03-15T20:22:46.106Z,50.73
2019-03-15T20:25:15.795Z,50.18
2019-03-15T20:27:44.449Z,50.84
2019-03-15T20:30:21.195Z,50.56
2019-03-15T20:32:45.600Z,51.18
2019-03-15T20:35:14.489Z,51.13
2019-03-15T20:37:43.142Z,50.49
2019-03-15T20:40:15.622Z,50.96
2019-03-15T20:42:44.272Z,50.84
2019-03-15T20:45:15.551Z,50.34
2019-03-15T20:47:44.203Z,49.62
2019-03-15T20:50:14.408Z,49.93
2019-03-15T20:52:43.074Z,50.40
2019-03-15T20:55:11.687Z,49.98
2019-03-15T20:57:40.365Z,50.37
2019-03-15T21:00:17.039Z,50.96
2019-03-15T21:02:45.737Z,50.65
2019-03-15T21:05:14.508Z,50.50
2019-03-15T21:07:44.114Z,50.86
2019-03-15T21:10:20.490Z,50.21
2019-03-15T21:12:52.156Z,50.27
2019-03-15T21:15:20.931Z,50.70
2019-03-15T21:17:50.144Z,50.30
2019-03-15T21:20:22.615Z,50.30
2019-03-15T21:22:50.586Z,51.17
2019-03-15T21:25:19.214Z,51.19
2019-03-15T21:27:54.222Z,50.54
2019-03-15T21:30:20.449Z,50.64
2019-03-15T21:32:49.082Z,50.48
2019-03-15T21:35:17.755Z,50.91
2019-03-15T21:37:46.425Z,51.32
2019-03-15T21:40:16.294Z,50.63
2019-03-15T21:42:44.941Z,51.17
2019-03-15T21:45:14.211Z,50.95
2019-03-15T21:47:42.886Z,51.57
2019-03-15T21:50:16.660Z,50.99
2019-03-15T21:52:45.343Z,50.96
2019-03-15T21:55:14.541Z,50.88
2019-03-15T21:57:43.183Z,51.50
2019-03-15T22:00:16.810Z,52.02
2019-03-15T22:02:45.468Z,52.15
2019-03-15T22:05:14.131Z,53.37
2019-03-15T22:07:42.802Z,53.42
2019-03-15T22:10:15.594Z,53.91
2019-03-15T22:12:44.256Z,54.20
2019-03-15T22:15:14.279Z,54.11
2019-03-15T22:17:43.219Z,55.13
2019-03-15T22:20:16.221Z,56.35
2019-03-15T22:22:44.853Z,55.49
2019-03-15T22:25:13.636Z,56.12
2019-03-15T22:27:42.284Z,56.48
2019-03-15T22:30:16.825Z,56.05
2019-03-15T22:32:45.516Z,55.66
2019-03-15T22:35:14.209Z,56.21
2019-03-15T22:37:42.879Z,56.59
2019-03-15T22:40:13.116Z,57.26
2019-03-15T22:42:41.777Z,57.93
2019-03-15T22:45:11.645Z,58.10
2019-03-15T22:47:40.317Z,58.06
2019-03-15T22:50:10.884Z,58.73
2019-03-15T22:52:39.618Z,58.85
2019-03-15T22:55:10.132Z,58.57
2019-03-15T22:57:38.879Z,58.93
2019-03-15T23:00:18.328Z,59.57
2019-03-15T23:02:47.076Z,60.19
2019-03-15T23:05:15.702Z,61.07
2019-03-15T23:07:44.435Z,61.45
2019-03-15T23:10:13.581Z,61.89
2019-03-15T23:12:42.241Z,61.66
2019-03-15T23:15:12.305Z,61.71
2019-03-15T23:17:40.971Z,61.71
2019-03-15T23:20:13.867Z,61.45
2019-03-15T23:22:42.604Z,61.43
2019-03-15T23:25:11.473Z,61.29
2019-03-15T23:27:40.134Z,61.65
2019-03-15T23:30:11.836Z,61.72
2019-03-15T23:32:40.496Z,61.86
2019-03-15T23:35:09.271Z,61.44
2019-03-15T23:37:37.945Z,61.46
2019-03-15T23:40:09.230Z,61.68
2019-03-15T23:42:37.898Z,62.09
2019-03-15T23:45:11.556Z,62.48
2019-03-15T23:47:40.232Z,62.76
2019-03-15T23:50:13.806Z,63.59
2019-03-15T23:52:42.580Z,63.84
2019-03-15T23:55:11.268Z,65.02
2019-03-15T23:57:40.270Z,65.13
